Time;durP1;ratioP1;P1;durP2;ratioP2;P2;SDS_P1;SDS_P2;PMS_P1;PMS_P2;Temp;Humidity;BMP_temperature;BMP_pressure;BME280_temperature;BME280_humidity;BME280_pressure;Samples;Min_cycle;Max_cycle;Signal;HPM_P1;HPM_P2
2022/04/11 00:03:26;;;;;;;0.10;0.10;;;;;;;7.16;100.00;99425.16;4078217;26;10002293;-67
2022/04/11 00:05:52;;;;;;;0.20;0.10;;;;;;;7.31;100.00;99424.81;5031043;28;20033;-66
2022/04/11 00:08:19;;;;;;;0.35;0.20;;;;;;;7.45;100.00;99441.28;5031105;28;20021;-66
2022/04/11 00:10:45;;;;;;;0.22;0.20;;;;;;;7.52;100.00;99442.81;5031512;28;20029;-66
2022/04/11 00:13:11;;;;;;;1.25;0.20;;;;;;;7.41;100.00;99438.84;5047965;28;20035;-66
2022/04/11 00:15:38;;;;;;;0.30;0.20;;;;;;;7.28;100.00;99437.50;5029652;28;20124;-68
2022/04/11 00:18:05;;;;;;;0.13;0.10;;;;;;;6.98;100.00;99433.97;5032517;28;20041;-67
2022/04/11 00:20:31;;;;;;;0.10;0.10;;;;;;;7.28;100.00;99447.59;5049277;28;20028;-67
2022/04/11 00:22:56;;;;;;;0.10;0.10;;;;;;;7.27;100.00;99456.06;5051055;28;20115;-67
2022/04/11 00:25:22;;;;;;;2.38;0.30;;;;;;;7.48;100.00;99466.50;5050591;28;20112;-66
2022/04/11 00:27:48;;;;;;;0.20;0.20;;;;;;;7.67;100.00;99466.88;5050638;28;20095;-67
2022/04/11 00:30:14;;;;;;;0.43;0.43;;;;;;;7.24;100.00;99489.00;5050720;28;20033;-67
2022/04/11 00:32:40;;;;;;;0.40;0.40;;;;;;;7.27;100.00;99476.28;5049353;28;20119;-66
2022/04/11 00:35:08;;;;;;;0.22;0.22;;;;;;;7.45;100.00;99494.38;5046073;28;20025;-67
2022/04/11 00:37:33;;;;;;;0.30;0.20;;;;;;;6.96;100.00;99435.72;5050522;28;20115;-67
2022/04/11 00:39:59;;;;;;;0.20;0.20;;;;;;;7.49;100.00;99488.38;5050264;28;20021;-66
2022/04/11 00:42:27;;;;;;;0.20;0.00;;;;;;;7.27;100.00;99467.00;5050307;28;20450;-66
2022/04/11 00:44:53;;;;;;;0.10;0.10;;;;;;;7.24;100.00;99491.50;5050701;28;20036;-65
2022/04/11 00:47:18;;;;;;;0.20;0.10;;;;;;;6.91;100.00;99467.84;5050469;28;20033;-67
2022/04/11 00:49:46;;;;;;;1.13;0.10;;;;;;;7.18;100.00;99479.00;5050463;28;20111;-69
2022/04/11 00:52:12;;;;;;;1.13;0.03;;;;;;;7.26;100.00;99482.19;5050577;28;20074;-67
2022/04/11 00:54:40;;;;;;;0.00;0.00;;;;;;;7.42;100.00;99518.91;5052106;28;20464;-69
2022/04/11 00:57:06;;;;;;;0.00;0.00;;;;;;;7.16;100.00;99476.53;5053454;28;20470;-69
2022/04/11 00:59:32;;;;;;;0.10;0.05;;;;;;;7.18;100.00;99524.50;5054393;28;20060;-69
2022/04/11 01:02:02;;;;;;;0.38;0.03;;;;;;;7.22;100.00;99524.41;5054486;28;21381;-72
2022/04/11 01:04:28;;;;;;;0.03;0.03;;;;;;;7.08;100.00;99528.09;5054458;28;20037;-67
2022/04/11 01:06:55;;;;;;;0.00;0.00;;;;;;;7.26;100.00;99530.22;5054319;28;20513;-69
2022/04/11 01:09:21;;;;;;;0.98;0.10;;;;;;;7.32;100.00;99527.56;5054155;28;20551;-66
2022/04/11 01:11:46;;;;;;;0.03;0.00;;;;;;;7.36;100.00;99514.84;5054260;28;20112;-66
2022/04/11 01:14:12;;;;;;;0.30;0.10;;;;;;;7.28;100.00;99541.97;5054066;28;20033;-67
2022/04/11 01:16:37;;;;;;;0.20;0.10;;;;;;;7.20;100.00;99551.41;5047992;28;20484;-66
2022/04/11 01:19:03;;;;;;;0.10;0.10;;;;;;;7.15;100.00;99504.38;5034386;28;20384;-66
2022/04/11 01:21:30;;;;;;;0.10;0.10;;;;;;;7.06;100.00;99477.59;5032650;28;20498;-66
2022/04/11 01:23:58;;;;;;;0.10;0.10;;;;;;;7.24;100.00;99499.09;5034151;28;20030;-66
2022/04/11 01:26:25;;;;;;;0.05;0.05;;;;;;;7.32;100.00;99535.16;5033841;28;20037;-67
2022/04/11 01:28:52;;;;;;;0.10;0.10;;;;;;;7.03;100.00;99497.88;5045935;28;20040;-66
2022/04/11 01:31:17;;;;;;;0.40;0.10;;;;;;;7.27;100.00;99529.38;5053997;28;20032;-67
2022/04/11 01:33:42;;;;;;;0.20;0.10;;;;;;;7.19;100.00;99489.09;5052504;28;20028;-66
2022/04/11 01:36:08;;;;;;;0.32;0.20;;;;;;;7.10;100.00;99506.16;5053751;28;20497;-66
2022/04/11 01:38:33;;;;;;;0.20;0.10;;;;;;;7.20;100.00;99515.19;5036468;28;20033;-66
2022/04/11 01:40:59;;;;;;;0.20;0.10;;;;;;;7.01;100.00;99500.44;5033349;28;20060;-66
2022/04/11 01:43:25;;;;;;;0.10;0.10;;;;;;;7.01;100.00;99487.78;5033939;28;20025;-67
2022/04/11 01:45:52;;;;;;;0.20;0.20;;;;;;;7.11;100.00;99525.53;5033703;28;20033;-69
2022/04/11 01:48:17;;;;;;;0.30;0.20;;;;;;;7.20;100.00;99535.41;5033684;28;20041;-69
2022/04/11 01:50:43;;;;;;;0.10;0.10;;;;;;;7.07;100.00;99476.75;5033434;28;20026;-69
2022/04/11 01:53:14;;;;;;;0.10;0.10;;;;;;;7.16;100.00;99511.06;5033327;28;20029;-66
2022/04/11 01:55:40;;;;;;;0.30;0.20;;;;;;;7.29;100.00;99515.81;5033674;28;20041;-66
2022/04/11 01:58:07;;;;;;;0.10;0.10;;;;;;;7.34;100.00;99551.13;5048051;28;20033;-66
2022/04/11 02:00:33;;;;;;;0.10;0.10;;;;;;;7.38;100.00;99537.53;5053518;28;20029;-66
2022/04/11 02:02:59;;;;;;;0.32;0.20;;;;;;;7.38;100.00;99522.38;5052002;28;20434;-65
2022/04/11 02:05:28;;;;;;;0.10;0.10;;;;;;;7.48;100.00;99560.06;5053209;28;20029;-66
2022/04/11 02:07:55;;;;;;;0.10;0.10;;;;;;;7.50;100.00;99565.94;5053272;28;20029;-67
2022/04/11 02:10:20;;;;;;;0.10;0.10;;;;;;;7.25;100.00;99548.81;5053423;28;20028;-66
2022/04/11 02:12:49;;;;;;;0.10;0.10;;;;;;;7.25;100.00;99538.69;5053148;28;20124;-66
2022/04/11 02:15:15;;;;;;;0.60;0.10;;;;;;;7.25;100.00;99542.03;5052910;28;20123;-69
2022/04/11 02:17:41;;;;;;;0.20;0.17;;;;;;;7.41;100.00;99580.44;5053102;28;20082;-69
2022/04/11 02:20:08;;;;;;;0.60;0.60;;;;;;;7.49;100.00;99581.13;5051506;28;20028;-69
2022/04/11 02:22:43;;;;;;;0.22;0.20;;;;;;;7.55;100.00;99594.47;5053014;28;20029;-66
2022/04/11 02:25:08;;;;;;;0.65;0.30;;;;;;;7.30;100.00;99589.97;5053125;28;20090;-67
2022/04/11 02:27:33;;;;;;;0.30;0.30;;;;;;;7.51;100.00;99581.91;5053094;28;20036;-66
2022/04/11 02:29:59;;;;;;;0.40;0.30;;;;;;;7.42;100.00;99577.91;5052561;28;20060;-69
2022/04/11 02:32:24;;;;;;;0.28;0.28;;;;;;;7.17;100.00;99555.72;5046887;28;20510;-69
2022/04/11 02:34:50;;;;;;;0.93;0.20;;;;;;;7.18;100.00;99557.38;5039634;28;20092;-69
2022/04/11 02:37:15;;;;;;;1.23;0.30;;;;;;;7.29;100.00;99570.63;5032896;28;20033;-69
2022/04/11 02:39:40;;;;;;;0.30;0.30;;;;;;;7.37;100.00;99599.91;5031443;28;20111;-69
2022/04/11 02:42:06;;;;;;;0.20;0.10;;;;;;;7.11;100.00;99586.97;5032252;28;20064;-69
2022/04/11 02:44:31;;;;;;;0.60;0.40;;;;;;;7.27;100.00;99613.59;5032358;28;20115;-67
2022/04/11 02:46:57;;;;;;;0.20;0.20;;;;;;;7.32;100.00;99611.00;5032664;28;20029;-69
2022/04/11 02:49:23;;;;;;;0.52;0.20;;;;;;;7.24;100.00;99569.88;5032437;28;20029;-69
2022/04/11 02:51:48;;;;;;;0.50;0.30;;;;;;;7.27;100.00;99603.50;5031343;28;20132;-68
2022/04/11 02:54:14;;;;;;;0.50;0.50;;;;;;;7.33;100.00;99607.63;5032332;28;20037;-68
2022/04/11 02:56:39;;;;;;;0.30;0.30;;;;;;;7.34;100.00;99625.28;5031034;28;20021;-69
2022/04/11 02:59:04;;;;;;;0.20;0.10;;;;;;;7.16;100.00;99590.25;5032653;28;20551;-68
2022/04/11 03:01:30;;;;;;;0.85;0.50;;;;;;;7.32;100.00;99634.59;5030863;28;20029;-69
2022/04/11 03:03:55;;;;;;;0.43;0.30;;;;;;;7.55;100.00;99642.50;5032058;28;20060;-68
2022/04/11 03:06:21;;;;;;;1.02;0.70;;;;;;;7.45;100.00;99635.97;5031092;28;20125;-68
2022/04/11 03:08:47;;;;;;;1.75;0.80;;;;;;;7.25;100.00;99606.94;5032570;28;20108;-70
2022/04/11 03:11:12;;;;;;;0.90;0.70;;;;;;;7.34;100.00;99586.50;5032199;28;20044;-67
2022/04/11 03:13:38;;;;;;;0.70;0.60;;;;;;;7.56;100.00;99656.84;5031791;28;20038;-68
2022/04/11 03:16:03;;;;;;;1.70;0.90;;;;;;;7.71;100.00;99661.56;5032052;28;20037;-69
2022/04/11 03:18:29;;;;;;;2.55;1.45;;;;;;;7.55;100.00;99659.38;5029885;28;20029;-68
2022/04/11 03:20:54;;;;;;;3.72;2.10;;;;;;;7.45;100.00;99662.97;5032100;28;20447;-69
2022/04/11 03:23:20;;;;;;;4.22;2.08;;;;;;;7.43;100.00;99645.31;5031720;28;20171;-68
2022/04/11 03:25:45;;;;;;;2.08;0.90;;;;;;;7.49;100.00;99640.13;5031632;28;20060;-69
2022/04/11 03:28:10;;;;;;;1.73;1.38;;;;;;;7.40;100.00;99635.25;5031850;28;20026;-69
2022/04/11 03:30:36;;;;;;;2.30;1.25;;;;;;;7.71;100.00;99675.91;5030394;28;20041;-68
2022/04/11 03:33:02;;;;;;;3.35;1.58;;;;;;;7.35;100.00;99656.47;5031805;28;20040;-68
2022/04/11 03:35:27;;;;;;;4.07;1.70;;;;;;;7.46;100.00;99669.69;5031663;28;20033;-69
2022/04/11 03:37:53;;;;;;;4.13;1.80;;;;;;;7.38;100.00;99638.69;5031753;28;20100;-68
2022/04/11 03:40:18;;;;;;;2.92;1.40;;;;;;;7.20;100.00;99644.94;5030166;28;20033;-68
2022/04/11 03:42:43;;;;;;;1.45;1.10;;;;;;;7.41;100.00;99671.47;5031474;28;20049;-68
2022/04/11 03:45:11;;;;;;;1.35;1.08;;;;;;;7.23;100.00;99636.47;5031260;28;20041;-69
2022/04/11 03:47:37;;;;;;;1.45;1.10;;;;;;;7.45;100.00;99673.91;5031428;28;20501;-68
2022/04/11 03:50:03;;;;;;;1.80;1.20;;;;;;;7.41;100.00;99666.41;5031672;28;20061;-69
2022/04/11 03:52:29;;;;;;;1.70;1.20;;;;;;;7.41;100.00;99657.13;5031460;28;20033;-68
2022/04/11 03:54:54;;;;;;;3.42;1.70;;;;;;;7.57;100.00;99678.72;5029896;28;20411;-68
2022/04/11 03:57:20;;;;;;;2.75;1.60;;;;;;;7.72;100.00;99677.59;5030994;28;20052;-69
2022/04/11 03:59:45;;;;;;;2.22;1.67;;;;;;;7.84;100.00;99679.84;5031342;28;20040;-70
2022/04/11 04:02:10;;;;;;;2.45;1.50;;;;;;;7.76;100.00;99684.25;5039429;28;20111;-69
2022/04/11 04:04:36;;;;;;;2.90;1.80;;;;;;;7.67;100.00;99684.41;5051233;28;20021;-69
2022/04/11 04:07:02;;;;;;;2.88;1.80;;;;;;;7.25;100.00;99673.47;5051290;28;20399;-71
2022/04/11 04:09:27;;;;;;;2.85;2.13;;;;;;;7.10;100.00;99656.09;5051375;28;20105;-70
2022/04/11 04:11:53;;;;;;;2.03;1.40;;;;;;;7.54;100.00;99706.63;5050741;28;20437;-69
2022/04/11 04:14:18;;;;;;;1.42;1.10;;;;;;;7.47;100.00;99678.94;5049373;28;20025;-71
2022/04/11 04:16:44;;;;;;;1.15;0.90;;;;;;;7.09;100.00;99658.66;5051077;28;20073;-70
2022/04/11 04:19:09;;;;;;;32.33;2.58;;;;;;;9.88;100.00;99675.34;5049318;28;20127;-70
2022/04/11 04:21:34;;;;;;;3.20;1.67;;;;;;;7.34;100.00;99705.34;5051160;28;20033;-69
2022/04/11 04:24:00;;;;;;;4.47;1.80;;;;;;;7.20;100.00;99723.31;5050329;28;20025;-70
2022/04/11 04:26:25;;;;;;;4.28;1.30;;;;;;;7.33;100.00;99703.69;5049641;28;20570;-71
2022/04/11 04:28:51;;;;;;;1.15;0.90;;;;;;;7.17;100.00;99730.94;5049328;28;20486;-69
2022/04/11 04:31:16;;;;;;;1.55;1.15;;;;;;;7.28;100.00;99721.47;5050380;28;20031;-70
2022/04/11 04:33:41;;;;;;;2.00;0.98;;;;;;;7.09;100.00;99726.88;5050371;28;20108;-70
2022/04/11 04:36:07;;;;;;;2.05;0.90;;;;;;;7.30;100.00;99736.59;5050441;28;20144;-70
2022/04/11 04:38:32;;;;;;;0.70;0.70;;;;;;;7.01;100.00;99710.16;5049988;28;20415;-70
2022/04/11 04:40:58;;;;;;;1.08;0.57;;;;;;;7.28;100.00;99745.91;5050354;28;20079;-70
2022/04/11 04:43:23;;;;;;;4.95;1.90;;;;;;;6.95;100.00;99695.09;5050487;28;20062;-70
2022/04/11 04:45:49;;;;;;;3.25;1.40;;;;;;;7.53;100.00;99770.69;5050695;28;20445;-69
2022/04/11 04:48:14;;;;;;;3.13;1.80;;;;;;;7.55;100.00;99763.06;5044154;28;20521;-71
2022/04/11 04:50:39;;;;;;;2.67;1.90;;;;;;;7.21;100.00;99749.41;5029239;28;20072;-70
2022/04/11 04:53:05;;;;;;;2.42;1.35;;;;;;;7.48;100.00;99774.19;5027139;28;20444;-70
2022/04/11 04:55:30;;;;;;;2.25;1.40;;;;;;;7.10;100.00;99752.13;5028962;28;20060;-70
2022/04/11 04:57:56;;;;;;;3.38;2.22;;;;;;;7.21;100.00;99759.53;5029677;28;20029;-69
2022/04/11 05:00:21;;;;;;;4.75;2.40;;;;;;;7.37;100.00;99771.84;5028978;28;20079;-70
2022/04/11 05:02:46;;;;;;;9.02;4.60;;;;;;;7.30;100.00;99751.75;5028519;28;20045;-70
2022/04/11 05:05:14;;;;;;;3.72;2.25;;;;;;;7.27;100.00;99787.22;5029680;28;20399;-70
2022/04/11 05:07:39;;;;;;;15.02;6.93;;;;;;;7.22;100.00;99778.88;5029270;28;20026;-70
2022/04/11 05:10:06;;;;;;;4.25;2.70;;;;;;;7.39;100.00;99794.59;5029391;28;20491;-69
2022/04/11 05:12:47;;;;;;;3.47;1.85;;;;;;;7.41;100.00;99782.72;5029454;28;20036;-69
2022/04/11 05:15:13;;;;;;;1.40;0.70;;;;;;;7.53;100.00;99795.16;5029970;28;20033;-69
2022/04/11 05:17:39;;;;;;;4.53;2.63;;;;;;;7.36;100.00;99810.66;5028780;28;20037;-70
2022/04/11 05:20:07;;;;;;;2.53;1.92;;;;;;;7.36;100.00;99804.75;5030041;28;20095;-70
2022/04/11 05:22:33;;;;;;;2.00;1.50;;;;;;;7.39;100.00;99814.81;5030418;28;20063;-71
2022/04/11 05:24:58;;;;;;;3.05;1.98;;;;;;;7.26;100.00;99829.38;5030459;28;20037;-71
2022/04/11 05:27:24;;;;;;;8.85;5.45;;;;;;;7.36;100.00;99800.53;5030470;28;20499;-70
2022/04/11 05:29:49;;;;;;;4.78;3.42;;;;;;;7.42;100.00;99840.03;5028888;28;20071;-70
2022/04/11 05:32:15;;;;;;;4.03;3.33;;;;;;;7.48;100.00;99810.44;5029038;28;20036;-69
2022/04/11 05:34:40;;;;;;;10.73;6.38;;;;;;;7.48;100.00;99807.91;5030203;28;20030;-70
2022/04/11 05:37:06;;;;;;;5.00;3.55;;;;;;;7.82;100.00;99829.16;5030274;28;20087;-70
2022/04/11 05:39:32;;;;;;;5.93;3.50;;;;;;;7.69;100.00;99779.66;5030304;28;20390;-70
2022/04/11 05:41:57;;;;;;;4.45;3.28;;;;;;;8.07;100.00;99810.94;5033823;28;20021;-70
2022/04/11 05:44:23;;;;;;;3.90;1.77;;;;;;;7.83;100.00;99833.38;5034137;28;20088;-70
2022/04/11 05:46:52;;;;;;;2.95;1.90;;;;;;;8.10;100.00;99859.00;5033863;28;20026;-71
2022/04/11 05:49:22;;;;;;;6.35;4.93;;;;;;;8.09;100.00;99839.59;5033600;28;20029;-69
2022/04/11 05:51:47;;;;;;;5.57;3.45;;;;;;;7.97;100.00;99837.31;5033850;28;20021;-70
2022/04/11 05:54:13;;;;;;;7.63;3.85;;;;;;;8.36;100.00;99862.69;5032531;28;20029;-71
2022/04/11 05:56:39;;;;;;;7.95;4.32;;;;;;;7.96;100.00;99853.38;5032340;28;20033;-71
2022/04/11 05:59:04;;;;;;;8.57;4.50;;;;;;;8.02;100.00;99840.59;5033590;28;20473;-70
2022/04/11 06:01:30;;;;;;;7.72;3.15;;;;;;;8.16;100.00;99838.63;5033685;28;20025;-70
2022/04/11 06:03:56;;;;;;;4.28;2.65;;;;;;;8.30;100.00;99827.34;5033826;28;20045;-70
2022/04/11 06:06:22;;;;;;;3.88;2.50;;;;;;;8.65;100.00;99864.59;5033545;28;20048;-69
2022/04/11 06:08:47;;;;;;;5.78;2.47;;;;;;;8.31;100.00;99874.63;5033295;28;20412;-71
2022/04/11 06:11:13;;;;;;;5.45;2.70;;;;;;;8.21;100.00;99852.84;5033500;28;20025;-70
2022/04/11 06:13:42;;;;;;;3.03;1.75;;;;;;;8.63;100.00;99859.56;5031824;28;20029;-71
2022/04/11 06:16:08;;;;;;;6.57;5.30;;;;;;;8.43;100.00;99856.63;5032901;28;20033;-70
2022/04/11 06:18:33;;;;;;;15.77;10.23;;;;;;;8.54;100.00;99874.13;5033517;28;20025;-70
2022/04/11 06:20:59;;;;;;;4.88;3.53;;;;;;;8.53;100.00;99877.53;5033326;28;20458;-71
2022/04/11 06:23:25;;;;;;;5.80;3.97;;;;;;;8.75;100.00;99889.69;5033101;28;20487;-71
2022/04/11 06:25:50;;;;;;;5.35;3.60;;;;;;;8.63;100.00;99889.16;5033180;28;20458;-70
2022/04/11 06:28:16;;;;;;;3.95;2.22;;;;;;;8.48;100.00;99872.56;5033188;28;20037;-71
2022/04/11 06:30:41;;;;;;;5.05;1.80;;;;;;;8.39;100.00;99899.78;5033189;28;20065;-70
2022/04/11 06:33:06;;;;;;;3.78;2.90;;;;;;;8.68;100.00;99907.59;5032990;28;20095;-70
2022/04/11 06:35:32;;;;;;;4.85;2.70;;;;;;;8.68;100.00;99903.38;5032989;28;20140;-70
2022/04/11 06:37:57;;;;;;;3.10;2.00;;;;;;;8.71;100.00;99884.75;5031663;28;20060;-70
2022/04/11 06:40:23;;;;;;;1.80;1.42;;;;;;;8.43;100.00;99919.97;5033131;28;20530;-69
2022/04/11 06:42:48;;;;;;;4.35;1.70;;;;;;;8.35;100.00;99924.34;5031405;28;20036;-68
2022/04/11 06:45:14;;;;;;;1.67;1.20;;;;;;;8.64;100.00;99937.25;5032637;28;20570;-70
2022/04/11 06:47:40;;;;;;;4.88;3.40;;;;;;;8.38;100.00;99928.50;5032747;28;20025;-70
2022/04/11 06:50:06;;;;;;;4.13;1.92;;;;;;;8.38;100.00;99944.53;5032867;28;20431;-70
2022/04/11 06:52:31;;;;;;;3.65;2.10;;;;;;;8.37;100.00;99947.09;5031819;28;20498;-70
2022/04/11 06:54:57;;;;;;;2.05;1.65;;;;;;;8.61;100.00;99932.25;5032517;28;20125;-71
2022/04/11 06:57:24;;;;;;;1.50;1.35;;;;;;;8.41;100.00;99916.63;5032478;28;20116;-71
2022/04/11 06:59:50;;;;;;;2.97;2.67;;;;;;;8.77;100.00;99962.34;5032470;28;20036;-69
2022/04/11 07:02:15;;;;;;;4.53;2.45;;;;;;;8.44;100.00;99934.28;5032581;28;20045;-70
2022/04/11 07:04:41;;;;;;;11.43;8.07;;;;;;;9.07;100.00;99971.81;5032484;28;20033;-69
2022/04/11 07:07:06;;;;;;;3.47;2.45;;;;;;;8.77;100.00;99932.75;5032187;28;20048;-70
2022/04/11 07:09:32;;;;;;;7.03;5.03;;;;;;;8.90;100.00;99971.34;5032371;28;20079;-70
2022/04/11 07:11:58;;;;;;;3.88;3.17;;;;;;;8.89;100.00;99957.00;5032134;28;20056;-69
2022/04/11 07:14:23;;;;;;;4.93;3.47;;;;;;;8.79;100.00;99946.25;5031959;28;20134;-70
2022/04/11 07:16:49;;;;;;;3.60;2.20;;;;;;;9.31;100.00;99941.66;5032149;28;20021;-70
2022/04/11 07:19:15;;;;;;;1.65;1.52;;;;;;;9.20;100.00;99941.06;5031923;28;20021;-70
2022/04/11 07:21:40;;;;;;;1.95;1.40;;;;;;;9.21;100.00;99955.41;5032042;28;20029;-70
2022/04/11 07:24:06;;;;;;;3.72;3.03;;;;;;;9.26;100.00;99963.75;5031995;28;20415;-70
2022/04/11 07:26:31;;;;;;;10.35;9.20;;;;;;;9.59;100.00;99995.94;5031765;28;20499;-69
2022/04/11 07:28:57;;;;;;;9.48;7.97;;;;;;;9.11;100.00;99960.75;5031744;28;20038;-70
2022/04/11 07:31:22;;;;;;;8.95;8.00;;;;;;;9.48;100.00;99961.56;5031959;28;20029;-69
2022/04/11 07:33:49;;;;;;;3.80;2.65;;;;;;;9.81;100.00;100010.66;5031967;28;20076;-69
2022/04/11 07:36:14;;;;;;;5.15;3.53;;;;;;;9.32;100.00;99995.75;5031727;28;20091;-70
2022/04/11 07:38:40;;;;;;;20.50;11.13;;;;;;;9.32;100.00;100018.59;5031952;28;20025;-70
2022/04/11 07:41:05;;;;;;;44.42;17.88;;;;;;;9.47;100.00;100026.69;5031473;28;20498;-69
2022/04/11 07:43:31;;;;;;;13.88;4.88;;;;;;;9.26;100.00;100039.84;5031467;28;20112;-70
2022/04/11 07:45:56;;;;;;;34.22;10.55;;;;;;;9.12;100.00;100031.72;5030539;28;20029;-70
2022/04/11 07:48:22;;;;;;;13.57;4.00;;;;;;;9.34;100.00;100043.06;5031599;28;20498;-69
2022/04/11 07:50:47;;;;;;;10.43;4.30;;;;;;;8.91;100.00;100016.13;5031610;28;20406;-71
2022/04/11 07:53:13;;;;;;;44.75;13.35;;;;;;;9.42;100.00;100048.81;5031728;28;20069;-70
2022/04/11 07:55:38;;;;;;;9.73;4.15;;;;;;;9.39;100.00;100020.94;5031405;28;20030;-70
2022/04/11 07:58:04;;;;;;;67.85;18.83;;;;;;;9.77;100.00;100042.91;5031179;28;20450;-70
2022/04/11 08:00:30;;;;;;;37.72;12.27;;;;;;;9.35;100.00;100034.56;5031746;28;20037;-71
2022/04/11 08:02:57;;;;;;;12.05;5.53;;;;;;;9.33;100.00;100036.31;5029630;28;20471;-70
2022/04/11 08:05:23;;;;;;;7.15;3.55;;;;;;;9.60;100.00;100047.56;5031651;28;20041;-71
2022/04/11 08:07:49;;;;;;;9.02;4.40;;;;;;;9.50;100.00;100061.31;5031444;28;20393;-69
2022/04/11 08:10:16;;;;;;;3.55;2.60;;;;;;;9.57;100.00;100076.38;5031477;28;20068;-70
2022/04/11 08:12:57;;;;;;;3.42;2.30;;;;;;;9.68;100.00;100060.06;5029630;28;20037;-70
2022/04/11 08:15:24;;;;;;;12.23;6.18;;;;;;;9.54;100.00;100060.38;5030197;28;20101;-70
2022/04/11 08:17:49;;;;;;;8.50;4.75;;;;;;;9.43;100.00;100090.22;5031074;28;20059;-71
2022/04/11 08:20:15;;;;;;;4.88;3.60;;;;;;;9.55;100.00;100108.56;5031166;28;20033;-71
2022/04/11 08:22:41;;;;;;;3.53;2.40;;;;;;;9.04;100.00;100070.75;5030902;28;20466;-70
2022/04/11 08:25:08;;;;;;;3.75;2.38;;;;;;;9.16;100.00;100093.34;5029414;28;20484;-70
2022/04/11 08:27:34;;;;;;;5.15;2.70;;;;;;;9.39;100.00;100098.75;5031110;28;20543;-70
2022/04/11 08:29:59;;;;;;;5.65;3.22;;;;;;;9.49;100.00;100087.53;5031136;28;20120;-71
2022/04/11 08:32:25;;;;;;;4.43;2.67;;;;;;;9.92;100.00;100078.09;5031262;28;20033;-70
2022/04/11 08:34:50;;;;;;;8.93;5.35;;;;;;;9.98;100.00;100089.81;5031023;28;20036;-71
2022/04/11 08:37:16;;;;;;;5.10;2.80;;;;;;;9.80;100.00;100102.94;5029349;28;20120;-70
2022/04/11 08:39:41;;;;;;;4.03;2.20;;;;;;;9.82;100.00;100122.34;5029221;28;20033;-70
2022/04/11 08:42:07;;;;;;;5.95;4.03;;;;;;;9.78;100.00;100082.66;5031014;28;20534;-70
2022/04/11 08:44:33;;;;;;;5.22;3.30;;;;;;;9.54;100.00;100119.59;5030492;28;20026;-69
2022/04/11 08:47:04;;;;;;;5.95;3.40;;;;;;;9.90;100.00;100138.25;5030924;28;20112;-70
2022/04/11 08:49:31;;;;;;;8.30;4.60;;;;;;;10.80;100.00;100135.19;5030626;28;20087;-70
2022/04/11 08:51:56;;;;;;;5.20;3.00;;;;;;;10.30;100.00;100108.50;5030690;28;20454;-70
2022/04/11 08:54:22;;;;;;;7.90;5.38;;;;;;;10.45;100.00;100132.72;5030322;28;20091;-69
2022/04/11 08:56:47;;;;;;;5.47;3.60;;;;;;;10.59;100.00;100117.09;5030561;28;20083;-70
2022/04/11 08:59:14;;;;;;;3.20;2.05;;;;;;;10.23;100.00;100132.41;5030689;28;20036;-71
2022/04/11 09:01:39;;;;;;;2.67;2.05;;;;;;;10.25;100.00;100112.03;5030586;28;20415;-70
2022/04/11 09:04:07;;;;;;;3.92;2.67;;;;;;;10.96;97.54;100121.19;5030257;28;20056;-70
2022/04/11 09:06:33;;;;;;;5.95;3.58;;;;;;;10.83;100.00;100112.22;5029228;28;20028;-70
2022/04/11 09:08:58;;;;;;;5.63;2.55;;;;;;;11.09;96.43;100129.31;5030447;28;20459;-68
2022/04/11 09:11:29;;;;;;;5.72;2.70;;;;;;;10.44;92.29;100148.81;5030508;28;20044;-70
2022/04/11 09:13:54;;;;;;;3.38;2.22;;;;;;;10.60;96.04;100162.81;5030589;28;20037;-69
2022/04/11 09:16:20;;;;;;;2.90;1.85;;;;;;;10.54;98.55;100142.63;5033215;28;20057;-70
2022/04/11 09:18:51;;;;;;;3.58;2.42;;;;;;;10.57;96.88;100150.19;5032973;28;20503;-69
2022/04/11 09:21:22;;;;;;;4.88;3.25;;;;;;;11.26;92.43;100119.50;5034202;28;20028;-70
2022/04/11 09:23:48;;;;;;;4.10;2.60;;;;;;;11.46;94.31;100152.00;5034327;28;20033;-70
2022/04/11 09:26:19;;;;;;;2.42;1.70;;;;;;;11.19;92.45;100148.53;5034459;28;20099;-70
2022/04/11 09:28:57;;;;;;;3.40;2.15;;;;;;;12.52;86.96;100119.78;5034368;28;20025;-70
2022/04/11 09:31:22;;;;;;;4.68;2.70;;;;;;;12.30;81.67;100151.97;5034157;28;20029;-70
2022/04/11 09:33:48;;;;;;;17.42;8.57;;;;;;;12.20;81.67;100161.63;5033782;28;20029;-69
2022/04/11 09:36:14;;;;;;;5.03;2.58;;;;;;;12.62;79.38;100166.22;5033831;28;20543;-69
2022/04/11 09:38:39;;;;;;;2.35;1.60;;;;;;;13.08;75.81;100138.28;5033961;28;20120;-71
2022/04/11 09:41:06;;;;;;;3.65;2.00;;;;;;;13.29;77.81;100127.28;5033997;28;20098;-70
2022/04/11 09:43:33;;;;;;;1.98;1.63;;;;;;;12.24;77.12;100159.81;5032712;28;20025;-68
2022/04/11 09:46:02;;;;;;;4.43;1.30;;;;;;;13.38;76.29;100147.38;5033994;28;20021;-70
2022/04/11 09:48:35;;;;;;;4.63;2.45;;;;;;;13.23;76.56;100140.25;5033706;28;20032;-70
2022/04/11 09:51:07;;;;;;;1.98;1.40;;;;;;;11.79;77.20;100173.97;5034009;28;20582;-69
2022/04/11 09:53:34;;;;;;;2.28;1.80;;;;;;;11.99;79.45;100180.13;5033885;28;20064;-70
2022/04/11 09:56:08;;;;;;;2.80;1.45;;;;;;;11.28;81.52;100171.19;5033637;28;20029;-70
2022/04/11 09:58:35;;;;;;;2.60;1.70;;;;;;;11.34;81.28;100193.91;5033622;28;20535;-70
2022/04/11 10:01:03;;;;;;;1.42;1.20;;;;;;;11.42;84.61;100158.91;5033637;28;20025;-69
2022/04/11 10:03:29;;;;;;;1.92;1.50;;;;;;;12.55;83.15;100192.81;5033681;28;20065;-70
2022/04/11 10:05:55;;;;;;;1.58;1.10;;;;;;;12.50;80.21;100174.28;5033608;28;20041;-71
2022/04/11 10:08:26;;;;;;;3.00;1.77;;;;;;;12.18;82.93;100191.41;5033496;28;20487;-70
2022/04/11 10:10:54;;;;;;;3.50;2.05;;;;;;;11.37;86.03;100198.09;5033756;28;20491;-71
2022/04/11 10:13:20;;;;;;;3.80;2.10;;;;;;;11.48;95.26;100153.63;5033316;28;20029;-70
2022/04/11 10:15:47;;;;;;;2.90;2.00;;;;;;;11.15;100.00;100169.84;5033135;28;20034;-70
2022/04/11 10:18:17;;;;;;;4.93;2.10;;;;;;;11.20;100.00;100206.19;5033411;28;20037;-70
2022/04/11 10:20:46;;;;;;;2.80;1.58;;;;;;;10.62;100.00;100222.09;5033222;28;20106;-70
2022/04/11 10:23:11;;;;;;;4.72;3.10;;;;;;;10.63;100.00;100228.00;5031959;28;20103;-70
2022/04/11 10:25:44;;;;;;;5.25;2.72;;;;;;;10.28;100.00;100227.13;5032977;28;20464;-70
2022/04/11 10:28:15;;;;;;;4.03;2.55;;;;;;;10.21;100.00;100207.81;5031799;28;20041;-70
2022/04/11 10:30:40;;;;;;;3.00;2.20;;;;;;;10.20;100.00;100241.69;5033279;28;20044;-70
2022/04/11 10:33:06;;;;;;;3.80;2.15;;;;;;;9.89;100.00;100214.44;5033286;28;20033;-69
2022/04/11 10:35:33;;;;;;;4.18;2.83;;;;;;;9.86;100.00;100244.97;5032935;28;20469;-70
2022/04/11 10:37:59;;;;;;;2.58;1.77;;;;;;;10.10;100.00;100254.66;5032892;28;20034;-70
2022/04/11 10:40:24;;;;;;;4.28;2.40;;;;;;;10.21;100.00;100251.00;5032645;28;20608;-69
2022/04/11 10:43:07;;;;;;;7.82;4.68;;;;;;;10.65;100.00;100251.69;5032717;28;20033;-70
2022/04/11 10:45:41;;;;;;;6.30;3.28;;;;;;;10.73;100.00;100252.34;5033041;28;20029;-70
2022/04/11 10:48:09;;;;;;;4.53;2.95;;;;;;;10.41;100.00;100270.91;5032741;28;20033;-68
2022/04/11 10:50:39;;;;;;;5.22;4.05;;;;;;;9.67;100.00;100279.19;5033008;28;20025;-70
2022/04/11 10:53:12;;;;;;;10.70;7.22;;;;;;;10.64;100.00;100234.75;5032457;28;20037;-69
2022/04/11 10:56:02;;;;;;;5.55;3.97;;;;;;;11.20;100.00;100245.19;5031374;28;20499;-70
2022/04/11 10:58:50;;;;;;;2.78;1.90;;;;;;;10.72;100.00;100237.94;5032734;28;20037;-69
2022/04/11 11:01:46;;;;;;;9.57;3.90;;;;;;;10.95;100.00;100273.84;5032318;28;20036;-70
2022/04/11 11:04:20;;;;;;;3.47;2.17;;;;;;;10.36;100.00;100221.84;5028399;28;20076;-70
2022/04/11 11:06:46;;;;;;;4.03;3.25;;;;;;;11.02;100.00;100232.94;5031350;28;20125;-70
2022/04/11 11:09:19;;;;;;;3.47;2.83;;;;;;;11.05;100.00;100270.19;5032510;28;20519;-70
2022/04/11 11:11:47;;;;;;;2.42;2.20;;;;;;;10.95;100.00;100271.31;5030629;28;20095;-69
2022/04/11 11:14:43;;;;;;;2.28;1.75;;;;;;;10.80;100.00;100280.13;5032469;28;20044;-70
2022/04/11 11:17:10;;;;;;;6.40;5.05;;;;;;;11.62;100.00;100278.00;5032109;28;20522;-69
2022/04/11 11:20:08;;;;;;;3.58;2.72;;;;;;;11.26;100.00;100280.66;5032205;28;20399;-70
2022/04/11 11:22:55;;;;;;;2.85;2.13;;;;;;;11.37;98.34;100270.19;5009508;28;20124;-70
2022/04/11 11:25:20;;;;;;;4.00;2.60;;;;;;;11.44;100.00;100232.69;5031876;28;20033;-70
2022/04/11 11:27:47;;;;;;;3.97;2.42;;;;;;;11.37;100.00;100249.81;5031940;28;20167;-70
2022/04/11 11:30:16;;;;;;;4.40;2.65;;;;;;;11.76;100.00;100286.97;5030463;28;20135;-70